Time;durP1;ratioP1;P1;durP2;ratioP2;P2;SDS_P1;SDS_P2;PMS_P1;PMS_P2;Temp;Humidity;BMP_temperature;BMP_pressure;BME280_temperature;BME280_humidity;BME280_pressure;Samples;Min_cycle;Max_cycle;Signal;HPM_P1;HPM_P2
2022/09/13 00:00:34;;;;;;;;;;;23.30;99.90;;;;;;5039051;28;19929;-59
2022/09/13 00:03:01;;;;;;;;;;;23.30;99.90;;;;;;5047526;28;19932;-57
2022/09/13 00:05:28;;;;;;;;;;;23.40;99.90;;;;;;5045130;28;19933;-57
2022/09/13 00:07:55;;;;;;;;;;;23.30;99.90;;;;;;5050178;28;19933;-61
2022/09/13 00:10:23;;;;;;;;;;;23.30;99.90;;;;;;5049631;28;19937;-57
2022/09/13 00:12:50;;;;;;;;;;;23.30;99.90;;;;;;5027501;28;19951;-59
2022/09/13 00:15:17;;;;;;;;;;;23.30;99.90;;;;;;5047878;28;20408;-60
2022/09/13 00:17:44;;;;;;;;;;;23.30;99.90;;;;;;5044659;28;19935;-59
2022/09/13 00:20:11;;;;;;;;;;;23.30;99.90;;;;;;5042821;28;19928;-58
2022/09/13 00:22:38;;;;;;;;;;;23.30;99.90;;;;;;5031655;28;19925;-55
2022/09/13 00:25:06;;;;;;;;;;;23.30;99.90;;;;;;5048026;28;20443;-60
2022/09/13 00:27:33;;;;;;;;;;;23.30;99.90;;;;;;5036688;28;19928;-59
2022/09/13 00:30:01;;;;;;;;;;;23.30;99.90;;;;;;5045598;28;19929;-58
2022/09/13 00:32:28;;;;;;;;;;;23.30;99.90;;;;;;5043972;28;20316;-56
2022/09/13 00:34:55;;;;;;;;;;;23.30;99.90;;;;;;5046452;28;19936;-60
2022/09/13 00:37:22;;;;;;;;;;;23.30;99.90;;;;;;5047776;28;19932;-59
2022/09/13 00:39:49;;;;;;;;;;;23.30;99.90;;;;;;5031888;28;19928;-57
2022/09/13 00:42:23;;;;;;;;;;;23.20;99.90;;;;;;5049102;28;20407;-55
2022/09/13 00:44:54;;;;;;;;;;;23.30;99.90;;;;;;5045109;28;19940;-59
2022/09/13 00:47:26;;;;;;;;;;;23.20;99.90;;;;;;5045593;28;19925;-57
2022/09/13 00:49:56;;;;;;;;;;;23.20;99.90;;;;;;5039828;28;19929;-57
2022/09/13 00:52:25;;;;;;;;;;;23.20;99.90;;;;;;5046717;28;19929;-57
2022/09/13 00:54:56;;;;;;;;;;;23.20;99.90;;;;;;5049661;28;19932;-58
2022/09/13 00:57:24;;;;;;;;;;;23.30;99.90;;;;;;5057164;28;19925;-58
2022/09/13 00:59:56;;;;;;;;;;;23.20;99.90;;;;;;5060209;28;19935;-59
2022/09/13 01:02:24;;;;;;;;;;;23.30;99.90;;;;;;5047210;28;19933;-56
2022/09/13 01:04:51;;;;;;;;;;;23.20;99.90;;;;;;5045245;28;19936;-60
2022/09/13 01:07:18;;;;;;;;;;;23.20;99.90;;;;;;5044020;28;19929;-59
2022/09/13 01:09:47;;;;;;;;;;;23.20;99.90;;;;;;5047881;28;19948;-60
2022/09/13 01:12:33;;;;;;;;;;;23.20;99.90;;;;;;5044906;28;19941;-59
2022/09/13 01:15:02;;;;;;;;;;;23.30;99.90;;;;;;5044013;28;19925;-59
2022/09/13 01:17:30;;;;;;;;;;;23.20;99.90;;;;;;5046957;28;20011;-59
2022/09/13 01:19:58;;;;;;;;;;;23.30;99.90;;;;;;5044270;28;20340;-53
2022/09/13 01:22:37;;;;;;;;;;;23.20;99.90;;;;;;5046270;28;19925;-53
2022/09/13 01:25:04;;;;;;;;;;;23.20;99.90;;;;;;5044335;28;19932;-55
2022/09/13 01:27:32;;;;;;;;;;;23.20;99.90;;;;;;5045436;28;19929;-55
2022/09/13 01:30:01;;;;;;;;;;;23.20;99.90;;;;;;5043610;28;19928;-52
2022/09/13 01:32:47;;;;;;;;;;;23.20;99.90;;;;;;5050589;28;19931;-53
2022/09/13 01:35:33;;;;;;;;;;;23.20;99.90;;;;;;5044331;28;19940;-58
2022/09/13 01:38:19;;;;;;;;;;;23.20;99.90;;;;;;5045366;28;19925;-55
2022/09/13 01:40:49;;;;;;;;;;;23.20;99.90;;;;;;5044073;28;20408;-61
2022/09/13 01:43:19;;;;;;;;;;;23.20;99.90;;;;;;5047289;28;19929;-58
2022/09/13 01:45:47;;;;;;;;;;;23.20;99.90;;;;;;5049980;28;20374;-58
2022/09/13 01:48:23;;;;;;;;;;;23.20;99.90;;;;;;5049241;28;19928;-59
2022/09/13 01:50:50;;;;;;;;;;;23.20;99.90;;;;;;5046569;28;19929;-61
2022/09/13 01:53:22;;;;;;;;;;;23.20;99.90;;;;;;5048424;28;19932;-60
2022/09/13 01:55:49;;;;;;;;;;;23.20;99.90;;;;;;5047111;28;19928;-61
2022/09/13 01:58:19;;;;;;;;;;;23.20;99.90;;;;;;5049339;28;19936;-58
2022/09/13 02:00:52;;;;;;;;;;;23.20;99.90;;;;;;5048686;28;19925;-59
2022/09/13 02:03:28;;;;;;;;;;;23.20;99.90;;;;;;5047597;28;20227;-58
2022/09/13 02:06:01;;;;;;;;;;;23.20;99.90;;;;;;5047134;28;19929;-59
2022/09/13 02:08:37;;;;;;;;;;;23.20;99.90;;;;;;5046979;28;19932;-60
2022/09/13 02:11:12;;;;;;;;;;;23.20;99.90;;;;;;5049111;28;19972;-61
2022/09/13 02:13:46;;;;;;;;;;;23.10;99.90;;;;;;5045626;28;19935;-56
2022/09/13 02:16:19;;;;;;;;;;;23.10;99.90;;;;;;5045868;28;20400;-57
2022/09/13 02:18:50;;;;;;;;;;;23.10;99.90;;;;;;5042822;28;19937;-56
2022/09/13 02:21:26;;;;;;;;;;;23.10;99.90;;;;;;5027220;28;19933;-57
2022/09/13 02:23:57;;;;;;;;;;;23.10;99.90;;;;;;5043847;28;19929;-56
2022/09/13 02:26:24;;;;;;;;;;;23.10;99.90;;;;;;5044884;28;19928;-60
2022/09/13 02:28:53;;;;;;;;;;;23.10;99.90;;;;;;5047647;28;19929;-60
2022/09/13 02:31:32;;;;;;;;;;;23.10;99.90;;;;;;5047827;28;20000;-55
2022/09/13 02:34:02;;;;;;;;;;;23.10;99.90;;;;;;5042153;28;19936;-57
2022/09/13 02:36:31;;;;;;;;;;;23.10;99.90;;;;;;5044889;28;19936;-61
2022/09/13 02:39:00;;;;;;;;;;;23.10;99.90;;;;;;5042812;28;19936;-59
2022/09/13 02:41:53;;;;;;;;;;;23.10;99.90;;;;;;5045594;28;19939;-57
2022/09/13 02:44:25;;;;;;;;;;;23.10;99.90;;;;;;5015140;28;19924;-56
2022/09/13 02:46:55;;;;;;;;;;;23.10;99.90;;;;;;5045275;28;19933;-57
2022/09/13 02:49:23;;;;;;;;;;;23.10;99.90;;;;;;5045514;28;19928;-57
2022/09/13 02:51:59;;;;;;;;;;;23.10;99.90;;;;;;5041971;28;20315;-57
2022/09/13 02:54:26;;;;;;;;;;;23.10;99.90;;;;;;5044734;28;19929;-60
2022/09/13 02:57:13;;;;;;;;;;;23.10;99.90;;;;;;5045362;28;20344;-58
2022/09/13 02:59:40;;;;;;;;;;;23.10;99.90;;;;;;5041168;28;19928;-56
2022/09/13 03:02:09;;;;;;;;;;;23.10;99.90;;;;;;5044683;28;19924;-56
2022/09/13 03:04:36;;;;;;;;;;;23.10;99.90;;;;;;5049279;28;19935;-57
2022/09/13 03:07:06;;;;;;;;;;;23.10;99.90;;;;;;5045662;28;19925;-58
2022/09/13 03:09:33;;;;;;;;;;;23.10;99.90;;;;;;5032579;28;20388;-55
2022/09/13 03:12:23;;;;;;;;;;;23.10;99.90;;;;;;5044577;28;19928;-57
2022/09/13 03:15:05;;;;;;;;;;;23.10;99.90;;;;;;5051378;28;19925;-55
2022/09/13 03:17:36;;;;;;;;;;;23.10;99.90;;;;;;5045960;28;19932;-57
2022/09/13 03:20:11;;;;;;;;;;;23.00;99.90;;;;;;5044447;28;19932;-58
2022/09/13 03:22:47;;;;;;;;;;;23.00;99.90;;;;;;5044071;28;19928;-59
2022/09/13 03:25:23;;;;;;;;;;;23.00;99.90;;;;;;5032514;28;20407;-57
2022/09/13 03:27:50;;;;;;;;;;;23.00;99.90;;;;;;5050520;28;19929;-58
2022/09/13 03:30:17;;;;;;;;;;;23.00;99.90;;;;;;5040176;28;19928;-61
2022/09/13 03:32:49;;;;;;;;;;;23.00;99.90;;;;;;5043383;28;20019;-61
2022/09/13 03:35:23;;;;;;;;;;;23.00;99.90;;;;;;5045779;28;19935;-61
2022/09/13 03:38:01;;;;;;;;;;;23.00;99.90;;;;;;5044964;28;19929;-56
2022/09/13 03:40:43;;;;;;;;;;;23.00;99.90;;;;;;5048193;28;19932;-60
2022/09/13 03:43:17;;;;;;;;;;;23.00;99.90;;;;;;5042695;28;20403;-58
2022/09/13 03:45:48;;;;;;;;;;;23.00;99.90;;;;;;5047309;28;19929;-58
2022/09/13 03:48:17;;;;;;;;;;;23.00;99.90;;;;;;5048666;28;19925;-59
2022/09/13 03:50:45;;;;;;;;;;;23.00;99.90;;;;;;5032819;28;19928;-59
2022/09/13 03:53:14;;;;;;;;;;;23.00;99.90;;;;;;5047912;28;19924;-60
2022/09/13 03:55:41;;;;;;;;;;;23.00;99.90;;;;;;5044390;28;19928;-60
2022/09/13 03:58:10;;;;;;;;;;;23.00;99.90;;;;;;5052637;28;19936;-55
2022/09/13 04:00:39;;;;;;;;;;;23.00;99.90;;;;;;5047120;28;19928;-57
2022/09/13 04:03:07;;;;;;;;;;;23.00;99.90;;;;;;5041100;28;20409;-60
2022/09/13 04:05:34;;;;;;;;;;;23.00;99.90;;;;;;5042581;28;20312;-56
2022/09/13 04:08:02;;;;;;;;;;;23.00;99.90;;;;;;5045858;28;19928;-57
2022/09/13 04:10:30;;;;;;;;;;;23.00;99.90;;;;;;5043854;28;19928;-59
2022/09/13 04:12:58;;;;;;;;;;;23.00;99.90;;;;;;5046367;28;19932;-57
2022/09/13 04:15:26;;;;;;;;;;;23.00;99.90;;;;;;5044184;28;20305;-59
2022/09/13 04:17:53;;;;;;;;;;;23.00;99.90;;;;;;5045227;28;19936;-58
2022/09/13 04:20:20;;;;;;;;;;;22.90;99.90;;;;;;5044050;28;19929;-57
2022/09/13 04:22:54;;;;;;;;;;;23.00;99.90;;;;;;5044510;28;19924;-56
2022/09/13 04:25:22;;;;;;;;;;;22.90;99.90;;;;;;5042993;28;19936;-60
2022/09/13 04:27:52;;;;;;;;;;;23.00;99.90;;;;;;5045220;28;19967;-58
2022/09/13 04:30:20;;;;;;;;;;;22.90;99.90;;;;;;5038485;28;19929;-58
2022/09/13 04:32:47;;;;;;;;;;;22.90;99.90;;;;;;5050089;28;19928;-56
2022/09/13 04:35:16;;;;;;;;;;;23.00;99.90;;;;;;5048739;28;19936;-59
2022/09/13 04:37:44;;;;;;;;;;;22.90;99.90;;;;;;5045362;28;20216;-57
2022/09/13 04:40:12;;;;;;;;;;;22.90;99.90;;;;;;5060337;28;19935;-58
2022/09/13 04:42:39;;;;;;;;;;;22.90;99.90;;;;;;5058651;28;19929;-59
2022/09/13 04:45:07;;;;;;;;;;;22.90;99.90;;;;;;5050223;28;19940;-56
2022/09/13 04:47:34;;;;;;;;;;;22.90;99.90;;;;;;5045421;28;20240;-54
2022/09/13 04:50:01;;;;;;;;;;;22.90;99.90;;;;;;5043733;28;19925;-57
2022/09/13 04:52:28;;;;;;;;;;;22.90;99.90;;;;;;5043511;28;19932;-54
2022/09/13 04:54:57;;;;;;;;;;;22.90;99.90;;;;;;5045594;28;19929;-59
2022/09/13 04:57:24;;;;;;;;;;;22.90;99.90;;;;;;5029994;28;20427;-60
2022/09/13 04:59:51;;;;;;;;;;;22.90;99.90;;;;;;5041873;28;19940;-59
2022/09/13 05:02:18;;;;;;;;;;;22.90;99.90;;;;;;5041737;28;20020;-59
2022/09/13 05:04:45;;;;;;;;;;;22.90;99.90;;;;;;5048739;28;19925;-61
2022/09/13 05:07:12;;;;;;;;;;;22.90;99.90;;;;;;5039551;28;19929;-61
2022/09/13 05:09:39;;;;;;;;;;;22.90;99.90;;;;;;5046600;28;19928;-58
2022/09/13 05:12:06;;;;;;;;;;;22.90;99.90;;;;;;5042282;28;20278;-60
2022/09/13 05:14:34;;;;;;;;;;;22.90;99.90;;;;;;5040398;28;19932;-59
2022/09/13 05:17:01;;;;;;;;;;;22.90;99.90;;;;;;5043864;28;19929;-60
2022/09/13 05:19:28;;;;;;;;;;;22.90;99.90;;;;;;5044038;28;19933;-58
2022/09/13 05:21:54;;;;;;;;;;;22.90;99.90;;;;;;5042184;28;19932;-58
2022/09/13 05:24:22;;;;;;;;;;;22.90;99.90;;;;;;5047570;28;19929;-62
2022/09/13 05:26:49;;;;;;;;;;;22.90;99.90;;;;;;5045072;28;19936;-62
2022/09/13 05:29:16;;;;;;;;;;;22.90;99.90;;;;;;5042736;28;19924;-58
2022/09/13 05:31:43;;;;;;;;;;;23.00;99.90;;;;;;5043898;28;20311;-61
2022/09/13 05:34:11;;;;;;;;;;;23.00;99.90;;;;;;5043691;28;19928;-63
2022/09/13 05:36:38;;;;;;;;;;;23.00;99.90;;;;;;5044970;28;20392;-61
2022/09/13 05:39:06;;;;;;;;;;;23.00;99.90;;;;;;5047991;28;19936;-57
2022/09/13 05:41:53;;;;;;;;;;;23.00;99.90;;;;;;5042523;28;19929;-58
2022/09/13 05:44:20;;;;;;;;;;;23.00;99.90;;;;;;5025885;28;20397;-59
2022/09/13 05:46:48;;;;;;;;;;;23.00;99.90;;;;;;5043958;28;19940;-59
2022/09/13 05:49:15;;;;;;;;;;;23.00;99.90;;;;;;5048467;28;19929;-58
2022/09/13 05:51:42;;;;;;;;;;;23.10;99.90;;;;;;5019897;28;20376;-55
2022/09/13 05:54:10;;;;;;;;;;;23.00;99.90;;;;;;5045850;28;19924;-58
2022/09/13 05:56:37;;;;;;;;;;;23.00;99.90;;;;;;5043363;28;19987;-57
2022/09/13 05:59:04;;;;;;;;;;;23.00;99.90;;;;;;5040665;28;19929;-55
2022/09/13 06:01:31;;;;;;;;;;;23.00;99.90;;;;;;5041528;28;20166;-58
2022/09/13 06:03:59;;;;;;;;;;;23.00;99.90;;;;;;5048598;28;19925;-57
2022/09/13 06:06:26;;;;;;;;;;;23.00;99.90;;;;;;5030591;28;19929;-58
2022/09/13 06:08:54;;;;;;;;;;;23.00;99.90;;;;;;5043364;28;19929;-58
2022/09/13 06:11:22;;;;;;;;;;;23.00;99.90;;;;;;5044274;28;20008;-58
2022/09/13 06:13:49;;;;;;;;;;;23.00;99.90;;;;;;5046731;28;19929;-58
2022/09/13 06:16:16;;;;;;;;;;;22.90;99.90;;;;;;5045260;28;19929;-59
2022/09/13 06:18:43;;;;;;;;;;;22.90;99.90;;;;;;5045301;28;19928;-59
2022/09/13 06:21:16;;;;;;;;;;;22.90;99.90;;;;;;5047227;28;20696;-59
2022/09/13 06:23:45;;;;;;;;;;;22.90;99.90;;;;;;5043586;28;19935;-59
2022/09/13 06:26:13;;;;;;;;;;;22.90;99.90;;;;;;5025897;28;20479;-56
2022/09/13 06:28:41;;;;;;;;;;;22.90;99.90;;;;;;5040425;28;19932;-60
2022/09/13 06:31:09;;;;;;;;;;;22.90;99.90;;;;;;5040579;28;19936;-60
2022/09/13 06:33:37;;;;;;;;;;;22.90;99.90;;;;;;5042347;28;19929;-59
2022/09/13 06:36:06;;;;;;;;;;;22.90;99.90;;;;;;5047159;28;19929;-58
2022/09/13 06:38:33;;;;;;;;;;;22.90;99.90;;;;;;5044615;28;20320;-60
2022/09/13 06:41:01;;;;;;;;;;;22.90;99.90;;;;;;5058097;28;19925;-60
2022/09/13 06:43:28;;;;;;;;;;;22.90;99.90;;;;;;5051779;28;19939;-58
2022/09/13 06:46:05;;;;;;;;;;;22.90;99.90;;;;;;5045785;28;20411;-63
2022/09/13 06:48:35;;;;;;;;;;;22.90;99.90;;;;;;5053888;28;19929;-63
2022/09/13 06:51:04;;;;;;;;;;;22.90;99.90;;;;;;5054604;28;19956;-64
2022/09/13 06:53:32;;;;;;;;;;;22.90;99.90;;;;;;5049572;28;19935;-63
2022/09/13 06:56:07;;;;;;;;;;;22.90;99.90;;;;;;5049618;28;20200;-65
2022/09/13 06:58:35;;;;;;;;;;;22.90;99.90;;;;;;5051272;28;19932;-62
2022/09/13 07:01:13;;;;;;;;;;;22.90;99.90;;;;;;5049125;28;19936;-62
2022/09/13 07:03:42;;;;;;;;;;;22.90;99.90;;;;;;5052632;28;19924;-63
2022/09/13 07:06:10;;;;;;;;;;;22.90;99.90;;;;;;5049979;28;19944;-63
2022/09/13 07:08:37;;;;;;;;;;;22.80;99.90;;;;;;5054065;28;19925;-64
2022/09/13 07:11:05;;;;;;;;;;;22.80;99.90;;;;;;5048617;28;19929;-64
2022/09/13 07:13:32;;;;;;;;;;;22.80;99.90;;;;;;5034249;28;19929;-63
2022/09/13 07:16:00;;;;;;;;;;;22.80;99.90;;;;;;5043959;28;19929;-62
2022/09/13 07:18:28;;;;;;;;;;;22.80;99.90;;;;;;5034727;28;19933;-64
2022/09/13 07:21:00;;;;;;;;;;;22.80;99.90;;;;;;5033171;28;19929;-61
2022/09/13 07:23:27;;;;;;;;;;;22.70;99.90;;;;;;5043776;28;20507;-63
2022/09/13 07:25:54;;;;;;;;;;;22.70;99.90;;;;;;5046141;28;19929;-65
2022/09/13 07:28:22;;;;;;;;;;;22.70;99.90;;;;;;5045042;28;19936;-64
2022/09/13 07:30:53;;;;;;;;;;;22.70;99.90;;;;;;5044661;28;19936;-66
2022/09/13 07:33:20;;;;;;;;;;;22.70;99.90;;;;;;5042826;28;19928;-62
2022/09/13 07:35:53;;;;;;;;;;;22.70;99.80;;;;;;5043550;28;19936;-59
2022/09/13 07:38:20;;;;;;;;;;;22.60;99.70;;;;;;5045980;28;19935;-61
2022/09/13 07:40:54;;;;;;;;;;;22.60;99.30;;;;;;5041860;28;19936;-60
2022/09/13 07:43:21;;;;;;;;;;;22.60;99.10;;;;;;5028084;28;19935;-61
2022/09/13 07:45:56;;;;;;;;;;;22.60;98.80;;;;;;5044834;28;20387;-60
2022/09/13 07:48:24;;;;;;;;;;;22.60;98.60;;;;;;5035340;28;19929;-62
2022/09/13 07:50:57;;;;;;;;;;;22.50;98.50;;;;;;5052458;28;19928;-61
2022/09/13 07:53:25;;;;;;;;;;;22.50;98.40;;;;;;5051300;28;20304;-61
2022/09/13 07:55:52;;;;;;;;;;;22.60;98.30;;;;;;5049148;28;19932;-62
2022/09/13 07:58:19;;;;;;;;;;;22.50;98.20;;;;;;5050877;28;19928;-60
2022/09/13 08:00:46;;;;;;;;;;;22.50;98.30;;;;;;5049480;28;19963;-60
2022/09/13 08:03:13;;;;;;;;;;;22.50;98.40;;;;;;5033277;28;19939;-63
2022/09/13 08:05:41;;;;;;;;;;;22.50;98.50;;;;;;5046774;28;20259;-62
2022/09/13 08:08:08;;;;;;;;;;;22.50;98.50;;;;;;5032883;28;19929;-59
2022/09/13 08:10:35;;;;;;;;;;;22.50;98.50;;;;;;5048158;28;19967;-61
2022/09/13 08:13:02;;;;;;;;;;;22.50;98.50;;;;;;5048529;28;20000;-61
2022/09/13 08:15:29;;;;;;;;;;;22.50;98.50;;;;;;5048604;28;19933;-61
2022/09/13 08:17:56;;;;;;;;;;;22.50;98.50;;;;;;5046333;28;20393;-60
2022/09/13 08:20:23;;;;;;;;;;;22.50;98.60;;;;;;5054704;28;19929;-59
2022/09/13 08:22:50;;;;;;;;;;;22.60;98.70;;;;;;5056772;28;20344;-60
2022/09/13 08:25:17;;;;;;;;;;;22.50;98.80;;;;;;5049114;28;19932;-60
2022/09/13 08:27:45;;;;;;;;;;;22.50;99.00;;;;;;5040561;28;20352;-59
2022/09/13 08:30:12;;;;;;;;;;;22.50;99.10;;;;;;5047146;28;19925;-58
2022/09/13 08:32:39;;;;;;;;;;;22.50;99.20;;;;;;5047774;28;19933;-62
2022/09/13 08:35:06;;;;;;;;;;;22.50;99.30;;;;;;5045616;28;19936;-62
2022/09/13 08:37:33;;;;;;;;;;;22.50;99.30;;;;;;5046479;28;19929;-63
2022/09/13 08:40:01;;;;;;;;;;;22.50;99.40;;;;;;5047352;28;19940;-61
2022/09/13 08:42:46;;;;;;;;;;;22.50;99.30;;;;;;5047357;28;19933;-62
2022/09/13 08:45:14;;;;;;;;;;;22.50;99.30;;;;;;5045015;28;19928;-59
2022/09/13 08:48:07;;;;;;;;;;;22.50;99.40;;;;;;5048550;28;20498;-61
2022/09/13 08:50:35;;;;;;;;;;;22.50;99.40;;;;;;5044468;28;19935;-61
2022/09/13 08:53:23;;;;;;;;;;;22.50;99.50;;;;;;5044382;28;20397;-61
2022/09/13 08:55:53;;;;;;;;;;;22.50;99.60;;;;;;5046904;28;19933;-61
2022/09/13 08:58:45;;;;;;;;;;;22.50;99.60;;;;;;5047978;28;20002;-62
2022/09/13 09:01:15;;;;;;;;;;;22.50;99.80;;;;;;5047314;28;19925;-60
2022/09/13 09:03:47;;;;;;;;;;;22.40;99.90;;;;;;5048638;28;20423;-59
2022/09/13 09:06:15;;;;;;;;;;;22.40;99.90;;;;;;5047837;28;19929;-58
2022/09/13 09:08:43;;;;;;;;;;;22.40;99.80;;;;;;5048900;28;19924;-58
2022/09/13 09:11:14;;;;;;;;;;;22.40;99.80;;;;;;5028082;28;20100;-59
2022/09/13 09:13:56;;;;;;;;;;;22.30;99.70;;;;;;5045054;28;19929;-59
2022/09/13 09:16:23;;;;;;;;;;;22.40;99.70;;;;;;5045132;28;19929;-60
2022/09/13 09:18:51;;;;;;;;;;;22.30;99.70;;;;;;5045407;28;19932;-58
2022/09/13 09:21:18;;;;;;;;;;;22.40;99.70;;;;;;5047621;28;19929;-59
2022/09/13 09:23:52;;;;;;;;;;;22.30;99.70;;;;;;5042284;28;19929;-59
2022/09/13 09:26:21;;;;;;;;;;;22.40;99.70;;;;;;5041360;28;19929;-60
2022/09/13 09:28:56;;;;;;;;;;;22.30;99.70;;;;;;5044521;28;19933;-61
2022/09/13 09:31:42;;;;;;;;;;;22.40;99.90;;;;;;5046847;28;19929;-60
2022/09/13 09:34:21;;;;;;;;;;;22.40;99.90;;;;;;5037138;28;19929;-61
2022/09/13 09:37:06;;;;;;;;;;;22.30;99.90;;;;;;5027052;28;19925;-60
2022/09/13 09:39:37;;;;;;;;;;;22.40;99.90;;;;;;5045696;28;19929;-63
2022/09/13 09:42:16;;;;;;;;;;;22.40;99.90;;;;;;5047436;28;19929;-62
2022/09/13 09:44:47;;;;;;;;;;;22.30;99.90;;;;;;5048426;28;19925;-60
2022/09/13 09:47:17;;;;;;;;;;;22.40;99.90;;;;;;5040574;28;19936;-61
2022/09/13 09:50:08;;;;;;;;;;;22.30;99.80;;;;;;5046014;28;19981;-62
2022/09/13 09:52:44;;;;;;;;;;;22.30;99.80;;;;;;5047303;28;19951;-61
2022/09/13 09:55:26;;;;;;;;;;;22.30;99.80;;;;;;5044806;28;19937;-61
2022/09/13 09:57:56;;;;;;;;;;;22.30;99.80;;;;;;5044335;28;19928;-61
2022/09/13 10:00:25;;;;;;;;;;;22.30;99.80;;;;;;5044137;28;20278;-61
2022/09/13 10:02:55;;;;;;;;;;;22.30;99.80;;;;;;5045566;28;19933;-61
2022/09/13 10:05:25;;;;;;;;;;;22.30;99.80;;;;;;5045745;28;20147;-60
2022/09/13 10:07:53;;;;;;;;;;;22.30;99.80;;;;;;5047943;28;19929;-60
2022/09/13 10:10:23;;;;;;;;;;;22.30;99.80;;;;;;5051597;28;19932;-61
2022/09/13 10:12:58;;;;;;;;;;;22.30;99.80;;;;;;5060073;28;19933;-61
2022/09/13 10:15:32;;;;;;;;;;;22.30;99.80;;;;;;5022785;28;19925;-63
2022/09/13 10:18:01;;;;;;;;;;;22.30;99.80;;;;;;5053242;28;20430;-62
2022/09/13 10:20:30;;;;;;;;;;;22.30;99.90;;;;;;5042063;28;19929;-62
2022/09/13 10:23:10;;;;;;;;;;;22.30;99.90;;;;;;5045261;28;19929;-61
2022/09/13 10:25:37;;;;;;;;;;;22.30;99.90;;;;;;5040024;28;19936;-62
2022/09/13 10:28:09;;;;;;;;;;;22.30;99.90;;;;;;5041632;28;20395;-62
2022/09/13 10:30:39;;;;;;;;;;;22.20;99.90;;;;;;5041510;28;19956;-61
2022/09/13 10:33:16;;;;;;;;;;;22.30;99.90;;;;;;5046206;28;19925;-60
2022/09/13 10:35:46;;;;;;;;;;;22.30;99.90;;;;;;5040747;28;19932;-63
2022/09/13 10:38:23;;;;;;;;;;;22.30;99.90;;;;;;5046369;28;19951;-61
2022/09/13 10:40:50;;;;;;;;;;;22.30;99.90;;;;;;5045505;28;19929;-62
2022/09/13 10:43:20;;;;;;;;;;;22.30;99.90;;;;;;5026023;28;20023;-59
2022/09/13 10:45:48;;;;;;;;;;;22.30;99.90;;;;;;5045113;28;19936;-60
2022/09/13 10:48:16;;;;;;;;;;;22.30;99.90;;;;;;5044640;28;19925;-59
2022/09/13 10:50:59;;;;;;;;;;;22.30;99.90;;;;;;5026560;28;19929;-61
2022/09/13 10:53:31;;;;;;;;;;;22.30;99.90;;;;;;5042411;28;19929;-62
2022/09/13 10:55:58;;;;;;;;;;;22.40;99.90;;;;;;5029320;28;20304;-61
2022/09/13 10:58:26;;;;;;;;;;;22.30;99.90;;;;;;5047494;28;20380;-61
2022/09/13 11:00:55;;;;;;;;;;;22.30;99.90;;;;;;5044843;28;19935;-60
2022/09/13 11:03:32;;;;;;;;;;;22.30;99.90;;;;;;5038737;28;19929;-62
2022/09/13 11:06:19;;;;;;;;;;;22.30;99.90;;;;;;5028000;28;19929;-61
2022/09/13 11:09:05;;;;;;;;;;;22.30;99.90;;;;;;5040820;28;19933;-63
2022/09/13 11:11:38;;;;;;;;;;;22.30;99.90;;;;;;5044740;28;19928;-61
2022/09/13 11:14:06;;;;;;;;;;;22.30;99.90;;;;;;5042938;28;19929;-62
2022/09/13 11:16:40;;;;;;;;;;;22.30;99.90;;;;;;5045851;28;19925;-60
2022/09/13 11:19:22;;;;;;;;;;;22.40;99.90;;;;;;5039577;28;19929;-60
2022/09/13 11:22:03;;;;;;;;;;;22.30;99.90;;;;;;5040723;28;19952;-58
2022/09/13 11:24:47;;;;;;;;;;;22.30;99.90;;;;;;5044517;28;19928;-56
2022/09/13 11:27:20;;;;;;;;;;;22.30;99.90;;;;;;5046923;28;19936;-60
2022/09/13 11:29:54;;;;;;;;;;;22.30;99.90;;;;;;5047594;28;20160;-60
2022/09/13 11:32:27;;;;;;;;;;;22.30;99.90;;;;;;5048209;28;19925;-62
2022/09/13 11:35:00;;;;;;;;;;;22.30;99.90;;;;;;5044437;28;20296;-62
2022/09/13 11:37:36;;;;;;;;;;;22.30;99.90;;;;;;5044267;28;19929;-60
2022/09/13 11:40:22;;;;;;;;;;;22.30;99.90;;;;;;5043202;28;20300;-61
2022/09/13 11:43:07;;;;;;;;;;;22.30;99.90;;;;;;5042474;28;20427;-62
2022/09/13 11:45:45;;;;;;;;;;;22.30;99.90;;;;;;5047621;28;19929;-58
2022/09/13 11:48:22;;;;;;;;;;;22.30;99.90;;;;;;5031987;28;20300;-59
2022/09/13 11:51:08;;;;;;;;;;;22.30;99.90;;;;;;5051320;28;19925;-62
2022/09/13 11:53:49;;;;;;;;;;;22.20;99.90;;;;;;5047266;28;19929;-59
2022/09/13 11:56:20;;;;;;;;;;;22.30;99.90;;;;;;5051369;28;19932;-60
2022/09/13 11:58:50;;;;;;;;;;;22.30;99.90;;;;;;5055293;28;19933;-54
2022/09/13 12:01:39;;;;;;;;;;;22.80;99.90;;;;;;5054698;28;19929;-58
2022/09/13 12:04:10;;;;;;;;;;;22.80;99.90;;;;;;5044337;28;19932;-60
2022/09/13 12:06:39;;;;;;;;;;;22.60;99.90;;;;;;5043987;28;19925;-59
2022/09/13 12:09:09;;;;;;;;;;;22.60;99.90;;;;;;5046078;28;19928;-64
2022/09/13 12:11:41;;;;;;;;;;;22.60;99.90;;;;;;5031907;28;19951;-63
2022/09/13 12:14:14;;;;;;;;;;;22.60;99.90;;;;;;5034380;28;19928;-55
2022/09/13 12:16:52;;;;;;;;;;;22.50;99.90;;;;;;5048451;28;19929;-64
2022/09/13 12:19:24;;;;;;;;;;;22.40;99.90;;;;;;5050889;28;19928;-62
2022/09/13 12:21:52;;;;;;;;;;;22.50;99.90;;;;;;5049408;28;19983;-60
2022/09/13 12:24:22;;;;;;;;;;;22.40;99.90;;;;;;5047899;28;19942;-61
2022/09/13 12:26:55;;;;;;;;;;;22.50;99.90;;;;;;5050818;28;20479;-61
2022/09/13 12:29:41;;;;;;;;;;;22.60;99.90;;;;;;5030016;28;19948;-59
2022/09/13 12:32:08;;;;;;;;;;;22.50;99.90;;;;;;5044016;28;19948;-60
2022/09/13 12:34:54;;;;;;;;;;;22.40;99.90;;;;;;5047207;28;19955;-60
2022/09/13 12:37:49;;;;;;;;;;;22.40;99.90;;;;;;5047997;28;19936;-60
2022/09/13 12:40:19;;;;;;;;;;;22.50;99.90;;;;;;5041176;28;19929;-61
2022/09/13 12:42:56;;;;;;;;;;;22.40;99.90;;;;;;5042519;28;20346;-61
2022/09/13 12:45:43;;;;;;;;;;;22.40;99.90;;;;;;5046742;28;19940;-63
2022/09/13 12:48:21;;;;;;;;;;;22.40;99.90;;;;;;5038454;28;19928;-61
2022/09/13 12:51:07;;;;;;;;;;;22.40;99.90;;;;;;5043685;28;19928;-62
2022/09/13 12:53:37;;;;;;;;;;;22.40;99.90;;;;;;5040540;28;19928;-60
2022/09/13 12:56:23;;;;;;;;;;;22.40;99.90;;;;;;5042542;28;19951;-62
2022/09/13 12:59:05;;;;;;;;;;;22.40;99.90;;;;;;5042031;28;19929;-58
2022/09/13 13:01:33;;;;;;;;;;;22.50;99.90;;;;;;5046847;28;19928;-62
2022/09/13 13:04:14;;;;;;;;;;;22.50;99.90;;;;;;5046799;28;19924;-63
2022/09/13 13:06:41;;;;;;;;;;;22.50;99.90;;;;;;5048025;28;20304;-67
2022/09/13 13:09:41;;;;;;;;;;;22.50;99.90;;;;;;5041661;28;19937;-61
2022/09/13 13:12:23;;;;;;;;;;;22.60;99.90;;;;;;5037345;28;20412;-61
2022/09/13 13:14:52;;;;;;;;;;;22.50;99.90;;;;;;5046859;28;19932;-62
2022/09/13 13:17:36;;;;;;;;;;;22.50;99.90;;;;;;5030297;28;20151;-60
2022/09/13 13:20:22;;;;;;;;;;;22.60;99.90;;;;;;5046802;28;20395;-63
2022/09/13 13:22:50;;;;;;;;;;;22.60;99.90;;;;;;5044342;28;19928;-62
2022/09/13 13:25:43;;;;;;;;;;;22.60;99.90;;;;;;5043959;28;19929;-60
2022/09/13 13:28:29;;;;;;;;;;;22.60;99.90;;;;;;5042869;28;20396;-60
2022/09/13 13:30:57;;;;;;;;;;;22.60;99.90;;;;;;5041648;28;20503;-61
2022/09/13 13:33:26;;;;;;;;;;;22.60;99.90;;;;;;5042527;28;19928;-62
2022/09/13 13:35:54;;;;;;;;;;;22.60;99.90;;;;;;5041526;28;19933;-61
2022/09/13 13:38:27;;;;;;;;;;;22.60;99.90;;;;;;5044844;28;19958;-61
2022/09/13 13:41:04;;;;;;;;;;;22.60;99.90;;;;;;5048034;28;20613;-62
2022/09/13 13:43:32;;;;;;;;;;;22.60;99.90;;;;;;5047236;28;19924;-62
2022/09/13 13:46:11;;;;;;;;;;;22.60;99.90;;;;;;5046706;28;19933;-59
2022/09/13 13:48:39;;;;;;;;;;;22.60;99.90;;;;;;5042086;28;19940;-62
2022/09/13 13:51:10;;;;;;;;;;;22.60;99.90;;;;;;5042413;28;20395;-63
2022/09/13 13:53:38;;;;;;;;;;;22.60;99.90;;;;;;5039811;28;19948;-59
2022/09/13 13:56:06;;;;;;;;;;;22.60;99.90;;;;;;5044903;28;19952;-62
2022/09/13 13:58:41;;;;;;;;;;;22.60;99.90;;;;;;5046985;28;19936;-60
2022/09/13 14:01:37;;;;;;;;;;;22.60;99.90;;;;;;5046175;28;19928;-61
2022/09/13 14:04:04;;;;;;;;;;;22.60;99.90;;;;;;5026492;28;20312;-63
2022/09/13 14:06:50;;;;;;;;;;;22.60;99.90;;;;;;5046085;28;19931;-62
2022/09/13 14:09:29;;;;;;;;;;;22.60;99.90;;;;;;5040545;28;19924;-58
2022/09/13 14:12:06;;;;;;;;;;;22.60;99.90;;;;;;5041186;28;19929;-59
2022/09/13 14:14:49;;;;;;;;;;;22.60;99.90;;;;;;5042196;28;19933;-62
2022/09/13 14:17:30;;;;;;;;;;;22.60;99.90;;;;;;5044551;28;19929;-61
2022/09/13 14:19:59;;;;;;;;;;;22.60;99.90;;;;;;5037527;28;19948;-59
2022/09/13 14:22:27;;;;;;;;;;;22.60;99.90;;;;;;5040080;28;19929;-59
2022/09/13 14:24:55;;;;;;;;;;;22.60;99.90;;;;;;5044089;28;20348;-60
2022/09/13 14:27:28;;;;;;;;;;;22.70;99.90;;;;;;5043415;28;20274;-61
2022/09/13 14:29:56;;;;;;;;;;;22.70;99.90;;;;;;5041943;28;19924;-60
2022/09/13 14:32:28;;;;;;;;;;;22.80;99.90;;;;;;5045987;28;19936;-62
2022/09/13 14:35:05;;;;;;;;;;;22.80;99.90;;;;;;5045734;28;19944;-61
2022/09/13 14:37:38;;;;;;;;;;;22.80;99.90;;;;;;5041603;28;19931;-59
2022/09/13 14:40:21;;;;;;;;;;;22.80;99.90;;;;;;5043648;28;19933;-62
2022/09/13 14:42:49;;;;;;;;;;;22.80;99.90;;;;;;5043350;28;20417;-64